Time;durP1;ratioP1;P1;durP2;ratioP2;P2;SDS_P1;SDS_P2;PMS_P1;PMS_P2;Temp;Humidity;BMP_temperature;BMP_pressure;BME280_temperature;BME280_humidity;BME280_pressure;Samples;Min_cycle;Max_cycle;Signal;HPM_P1;HPM_P2
2023/03/29 00:02:30;;;;;;;7.38;2.60;;;;;;;1.76;94.52;101197.25;5070875;28;20131;-77
2023/03/29 00:05:03;;;;;;;12.43;4.25;;;;;;;1.85;94.28;101197.59;5067506;28;20033;-77
2023/03/29 00:07:32;;;;;;;6.75;2.72;;;;;;;1.87;94.49;101198.56;5052508;28;20071;-77
2023/03/29 00:10:01;;;;;;;7.25;2.80;;;;;;;1.91;93.46;101197.88;5062372;28;20040;-77
2023/03/29 00:12:27;;;;;;;6.03;2.72;;;;;;;1.90;94.05;101201.28;5071038;28;20041;-77
2023/03/29 00:14:52;;;;;;;7.88;2.78;;;;;;;1.94;93.90;101191.88;5074213;28;20039;-77
2023/03/29 00:17:18;;;;;;;6.03;2.55;;;;;;;2.02;93.52;101182.66;5067506;28;20044;-77
2023/03/29 00:19:44;;;;;;;6.82;2.55;;;;;;;2.10;92.71;101180.34;5069227;28;20028;-77
2023/03/29 00:22:10;;;;;;;5.63;2.45;;;;;;;2.13;92.51;101181.34;5065762;28;20028;-77
2023/03/29 00:24:35;;;;;;;8.38;3.00;;;;;;;2.11;91.49;101175.19;5068209;28;20033;-77
2023/03/29 00:27:01;;;;;;;8.00;2.25;;;;;;;2.08;92.04;101180.28;5067586;28;20052;-77
2023/03/29 00:29:27;;;;;;;5.82;2.42;;;;;;;2.07;91.44;101173.31;5071449;28;20109;-77
2023/03/29 00:31:53;;;;;;;6.88;2.50;;;;;;;1.96;91.88;101170.28;5064858;28;20702;-77
2023/03/29 00:34:19;;;;;;;6.90;2.40;;;;;;;1.87;91.65;101169.91;5049391;28;20055;-77
2023/03/29 00:36:49;;;;;;;10.27;3.25;;;;;;;1.80;92.08;101167.00;5058958;28;20085;-77
2023/03/29 00:39:18;;;;;;;6.72;2.55;;;;;;;1.80;91.82;101169.63;5071179;28;20036;-77
2023/03/29 00:41:45;;;;;;;6.32;2.53;;;;;;;1.81;91.84;101163.56;5049079;28;20044;-77
2023/03/29 00:44:48;;;;;;;8.70;2.92;;;;;;;1.82;91.37;101165.38;5064566;28;20479;-77
2023/03/29 00:47:13;;;;;;;4.57;2.15;;;;;;;1.77;91.17;101164.28;5067980;28;20032;-77
2023/03/29 00:49:39;;;;;;;4.68;2.47;;;;;;;1.74;90.94;101162.47;5048746;28;20048;-77
2023/03/29 00:52:05;;;;;;;7.63;2.63;;;;;;;1.68;91.40;101160.50;5064837;28;20032;-77
2023/03/29 00:54:31;;;;;;;4.50;1.90;;;;;;;1.65;91.13;101152.59;5071050;28;20028;-77
2023/03/29 00:57:02;;;;;;;6.80;2.55;;;;;;;1.62;91.44;101155.03;5070007;28;20029;-77
2023/03/29 00:59:31;;;;;;;7.72;2.70;;;;;;;1.59;92.10;101152.31;5068978;28;20032;-77
2023/03/29 01:02:01;;;;;;;7.25;2.60;;;;;;;1.54;92.04;101153.84;5066832;28;20039;-77
2023/03/29 01:04:48;;;;;;;7.65;2.70;;;;;;;1.53;93.25;101141.69;5068204;28;20025;-77
2023/03/29 01:07:17;;;;;;;5.15;2.60;;;;;;;1.32;96.14;101136.50;5061093;28;20395;-77
2023/03/29 01:09:47;;;;;;;5.55;2.50;;;;;;;1.29;96.53;101131.19;5056813;28;20032;-77
2023/03/29 01:12:18;;;;;;;10.60;2.55;;;;;;;1.27;96.55;101123.28;5051275;28;20032;-77
2023/03/29 01:14:50;;;;;;;5.40;2.03;;;;;;;1.34;95.69;101123.53;5048286;28;20067;-77
2023/03/29 01:17:20;;;;;;;4.68;1.92;;;;;;;1.35;95.60;101114.94;5054878;28;20036;-77
2023/03/29 01:19:52;;;;;;;4.63;1.90;;;;;;;1.44;95.23;101118.78;5068286;28;20037;-77
2023/03/29 01:22:41;;;;;;;8.65;2.80;;;;;;;1.47;94.67;101118.91;5069964;28;20039;-77
2023/03/29 01:25:25;;;;;;;10.07;2.65;;;;;;;1.37;95.10;101114.16;5053249;28;20033;-77
2023/03/29 01:28:07;;;;;;;5.68;2.22;;;;;;;1.28;95.05;101112.09;5058399;28;20434;-77
2023/03/29 01:30:41;;;;;;;6.43;1.95;;;;;;;1.16;97.66;101106.38;5065788;28;20091;-77
2023/03/29 01:33:30;;;;;;;9.77;2.65;;;;;;;1.12;98.22;101107.06;5050757;28;20098;-77
2023/03/29 01:36:08;;;;;;;4.35;1.90;;;;;;;1.04;98.53;101098.06;5048668;28;20048;-77
2023/03/29 01:38:41;;;;;;;6.28;2.40;;;;;;;1.10;97.78;101098.31;5045029;28;20041;-77
2023/03/29 01:41:07;;;;;;;6.68;2.53;;;;;;;1.07;96.56;101086.09;5055515;28;20029;-77
2023/03/29 01:43:46;;;;;;;6.15;2.22;;;;;;;1.07;97.09;101082.59;5048499;28;20051;-77
2023/03/29 01:46:56;;;;;;;6.05;2.78;;;;;;;1.01;97.52;101082.34;5036978;28;20040;-77
2023/03/29 01:49:31;;;;;;;5.85;2.35;;;;;;;1.01;98.21;101071.94;5054365;28;20056;-77
2023/03/29 01:52:06;;;;;;;6.00;2.10;;;;;;;1.06;97.25;101075.63;5055407;28;20079;-77
2023/03/29 01:54:37;;;;;;;4.70;2.22;;;;;;;1.08;97.64;101069.66;5060242;28;20040;-77
2023/03/29 01:57:05;;;;;;;6.32;2.25;;;;;;;1.08;97.47;101066.19;5051969;28;20029;-77
2023/03/29 01:59:34;;;;;;;5.50;2.25;;;;;;;1.03;98.14;101068.59;5070076;28;20036;-77
2023/03/29 02:02:03;;;;;;;9.95;2.40;;;;;;;0.97;98.96;101065.75;5053847;28;20099;-77
2023/03/29 02:04:33;;;;;;;5.45;2.20;;;;;;;0.96;99.18;101063.94;5054670;28;20037;-77
2023/03/29 02:07:02;;;;;;;4.85;2.20;;;;;;;1.00;99.19;101060.66;5054150;28;20028;-77
2023/03/29 02:09:28;;;;;;;7.57;2.17;;;;;;;1.04;99.22;101052.16;5073527;28;20123;-77
2023/03/29 02:11:58;;;;;;;8.45;2.55;;;;;;;1.04;99.85;101048.69;5049934;28;20090;-77
2023/03/29 02:14:24;;;;;;;9.88;2.80;;;;;;;1.04;100.00;101052.16;5053042;28;20094;-77
2023/03/29 02:16:50;;;;;;;6.07;2.40;;;;;;;1.19;99.97;101040.63;5071983;28;20115;-77
2023/03/29 02:19:17;;;;;;;6.93;3.10;;;;;;;1.34;99.27;101038.63;5072129;28;20064;-77
2023/03/29 02:22:02;;;;;;;6.18;2.13;;;;;;;1.48;97.85;101040.03;5052528;28;20032;-77
2023/03/29 02:24:31;;;;;;;7.03;2.30;;;;;;;1.54;96.86;101039.38;5068470;28;20041;-77
2023/03/29 02:26:57;;;;;;;5.53;1.98;;;;;;;1.60;96.50;101039.63;5060477;28;20028;-77
2023/03/29 02:29:24;;;;;;;5.05;2.50;;;;;;;1.62;96.28;101030.16;5051939;28;20029;-77
2023/03/29 02:31:54;;;;;;;7.20;2.33;;;;;;;1.61;96.40;101031.00;5070526;28;20447;-77
2023/03/29 02:34:27;;;;;;;5.20;2.22;;;;;;;1.62;96.62;101032.75;5052437;28;20415;-77
2023/03/29 02:36:57;;;;;;;6.07;2.55;;;;;;;1.66;96.47;101019.03;5076050;28;20036;-77
2023/03/29 02:39:25;;;;;;;10.23;3.00;;;;;;;1.71;95.95;101007.09;5067906;28;20063;-77
2023/03/29 02:41:52;;;;;;;7.85;2.03;;;;;;;1.79;95.96;101003.91;5063807;28;20033;-77
2023/03/29 02:44:21;;;;;;;11.82;3.33;;;;;;;1.80;95.80;101006.53;5050112;28;20052;-77
2023/03/29 02:46:50;;;;;;;7.28;2.28;;;;;;;1.73;96.33;101009.75;5051420;28;20070;-77
2023/03/29 02:49:16;;;;;;;6.32;2.42;;;;;;;1.68;97.03;100999.19;5050714;28;20064;-77
2023/03/29 02:51:46;;;;;;;6.72;3.17;;;;;;;1.73;97.57;101000.22;5053233;28;20529;-77
2023/03/29 02:54:16;;;;;;;7.05;2.60;;;;;;;1.68;98.34;100991.38;5058079;28;20091;-77
2023/03/29 02:56:45;;;;;;;6.95;2.85;;;;;;;1.80;98.48;100984.84;5056216;28;20453;-77
2023/03/29 02:59:11;;;;;;;6.32;2.42;;;;;;;1.92;97.35;100988.78;5068941;28;20048;-77
2023/03/29 03:01:38;;;;;;;5.00;2.17;;;;;;;2.05;95.47;100987.50;5060871;28;20036;-77
2023/03/29 03:04:04;;;;;;;6.03;2.25;;;;;;;2.13;94.27;100986.06;5051737;28;20054;-77
2023/03/29 03:06:29;;;;;;;5.97;2.10;;;;;;;2.17;93.57;100985.34;5031527;28;20032;-77
2023/03/29 03:08:55;;;;;;;4.70;2.30;;;;;;;2.07;93.10;100991.06;5060616;28;20024;-77
2023/03/29 03:11:22;;;;;;;5.95;2.22;;;;;;;1.92;93.68;100980.09;5061464;28;20036;-77
2023/03/29 03:13:48;;;;;;;5.00;2.40;;;;;;;1.90;94.25;100973.94;5051318;28;20051;-77
2023/03/29 03:16:13;;;;;;;8.57;2.95;;;;;;;1.89;93.83;100974.78;5072041;28;20028;-77
2023/03/29 03:18:40;;;;;;;9.45;2.63;;;;;;;1.80;94.75;100982.22;5065312;28;20029;-77
2023/03/29 03:21:05;;;;;;;9.05;3.38;;;;;;;1.78;94.71;100970.88;5055529;28;20041;-77
2023/03/29 03:23:30;;;;;;;6.40;2.53;;;;;;;1.74;95.24;100959.47;5074819;28;20064;-77
2023/03/29 03:25:56;;;;;;;7.40;2.30;;;;;;;1.78;95.36;100970.88;5057724;28;20029;-77
2023/03/29 03:28:23;;;;;;;7.60;2.13;;;;;;;1.75;96.18;100961.25;5054138;28;20039;-77
2023/03/29 03:30:49;;;;;;;8.15;2.67;;;;;;;1.65;96.78;100957.44;5044990;28;20029;-76
2023/03/29 03:33:25;;;;;;;8.30;3.10;;;;;;;1.54;97.74;100961.34;5065346;28;20050;-77
2023/03/29 03:36:30;;;;;;;9.32;2.05;;;;;;;1.50;97.06;100957.75;5046750;28;20047;-77
2023/03/29 03:38:55;;;;;;;6.43;2.05;;;;;;;1.48;96.96;100949.00;5047767;28;20598;-77
2023/03/29 03:41:21;;;;;;;5.45;2.10;;;;;;;1.42;97.80;100947.91;5055841;28;20043;-76
2023/03/29 03:43:47;;;;;;;8.95;2.95;;;;;;;1.42;97.44;100950.50;5047080;28;20109;-77
2023/03/29 03:46:16;;;;;;;3.95;1.80;;;;;;;1.41;96.95;100944.38;5047136;28;20032;-77
2023/03/29 03:48:43;;;;;;;7.50;2.20;;;;;;;1.38;97.00;100943.38;5053786;28;20525;-76
2023/03/29 03:51:20;;;;;;;6.28;2.15;;;;;;;1.35;97.13;100943.28;5043216;28;20103;-77
2023/03/29 03:53:46;;;;;;;5.43;1.92;;;;;;;1.35;97.21;100948.47;5047133;28;20021;-78
2023/03/29 03:56:12;;;;;;;8.23;2.58;;;;;;;1.36;97.26;100945.91;5069569;28;20033;-77
2023/03/29 03:59:09;;;;;;;4.15;1.60;;;;;;;1.36;96.91;100945.03;5055318;28;20098;-77
2023/03/29 04:01:55;;;;;;;6.00;2.20;;;;;;;1.31;97.24;100943.16;5050408;28;20117;-77
2023/03/29 04:04:22;;;;;;;5.38;1.77;;;;;;;1.28;97.76;100940.47;5047898;28;20057;-77
2023/03/29 04:07:01;;;;;;;5.10;2.03;;;;;;;1.33;97.24;100945.81;5049712;28;20032;-77
2023/03/29 04:09:33;;;;;;;12.70;3.10;;;;;;;1.28;97.27;100942.16;5070152;28;20044;-77
2023/03/29 04:12:17;;;;;;;6.75;2.08;;;;;;;1.16;97.37;100945.19;5064957;28;20124;-77
2023/03/29 04:14:43;;;;;;;6.57;2.33;;;;;;;1.13;97.22;100941.56;5044507;28;20574;-77
2023/03/29 04:17:15;;;;;;;7.70;2.60;;;;;;;1.06;98.05;100937.84;5063260;28;20540;-77
2023/03/29 04:20:01;;;;;;;6.20;2.10;;;;;;;1.08;97.89;100938.81;5066675;28;20079;-77
2023/03/29 04:22:29;;;;;;;6.60;1.92;;;;;;;1.11;98.00;100938.03;5052990;28;20132;-77
2023/03/29 04:24:55;;;;;;;5.65;1.63;;;;;;;1.07;97.83;100937.94;5069022;28;20499;-77
2023/03/29 04:27:50;;;;;;;9.95;2.45;;;;;;;1.08;97.69;100931.00;5030079;28;20092;-77
2023/03/29 04:30:26;;;;;;;22.58;8.95;;;;;;;1.11;97.37;100930.25;5051678;28;20029;-77
2023/03/29 04:33:04;;;;;;;13.73;5.45;;;;;;;1.12;96.84;100925.09;5069550;28;20068;-77
2023/03/29 04:35:30;;;;;;;10.98;4.30;;;;;;;1.12;96.38;100929.41;5052825;28;20063;-77
2023/03/29 04:37:55;;;;;;;10.27;3.90;;;;;;;1.10;96.36;100931.94;5051901;28;20028;-77
2023/03/29 04:40:22;;;;;;;5.75;2.20;;;;;;;1.05;96.39;100925.69;5052792;28;20028;-77
2023/03/29 04:43:07;;;;;;;11.18;2.13;;;;;;;1.00;96.53;100929.84;5049821;28;20082;-77
2023/03/29 04:45:33;;;;;;;5.40;2.30;;;;;;;0.98;96.44;100931.47;5048410;28;20046;-77
2023/03/29 04:48:08;;;;;;;7.72;2.20;;;;;;;0.92;95.97;100926.94;5052983;28;20024;-77
2023/03/29 04:50:37;;;;;;;7.93;2.13;;;;;;;0.85;96.50;100922.31;5050001;28;20028;-77
2023/03/29 04:53:02;;;;;;;6.60;2.00;;;;;;;0.75;97.56;100915.84;5054599;28;20023;-77
2023/03/29 04:55:28;;;;;;;6.97;2.08;;;;;;;0.76;97.73;100915.06;5048313;28;20063;-77
2023/03/29 04:57:59;;;;;;;10.68;2.55;;;;;;;0.86;97.68;100911.06;5048443;28;20039;-77
2023/03/29 05:00:30;;;;;;;6.63;2.53;;;;;;;0.93;97.43;100907.03;5050987;28;20503;-77
2023/03/29 05:03:13;;;;;;;8.82;2.67;;;;;;;0.98;98.36;100903.78;5050644;28;20129;-77
2023/03/29 05:05:46;;;;;;;8.40;3.10;;;;;;;1.05;98.62;100897.97;5051410;28;20055;-77
2023/03/29 05:08:11;;;;;;;8.18;3.13;;;;;;;1.17;98.37;100907.06;5051444;28;20455;-77
2023/03/29 05:10:56;;;;;;;5.55;2.33;;;;;;;1.25;97.82;100898.72;5064143;28;20047;-77
2023/03/29 05:13:24;;;;;;;8.20;2.20;;;;;;;1.44;98.17;100902.91;5050638;28;20041;-77
2023/03/29 05:15:50;;;;;;;10.10;2.67;;;;;;;1.60;97.18;100899.16;5054625;28;20040;-77
2023/03/29 05:18:16;;;;;;;8.25;2.65;;;;;;;1.78;96.08;100898.00;5046257;28;20032;-77
2023/03/29 05:20:41;;;;;;;8.52;3.38;;;;;;;1.86;94.46;100896.56;5050601;28;20037;-77
2023/03/29 05:23:09;;;;;;;11.73;5.32;;;;;;;1.92;93.81;100900.28;5053916;28;20033;-77
2023/03/29 05:26:04;;;;;;;11.45;5.43;;;;;;;2.08;93.48;100899.06;5051640;28;20375;-77
2023/03/29 05:28:29;;;;;;;21.38;8.95;;;;;;;2.18;93.08;100895.94;5043155;28;20039;-77
2023/03/29 05:31:03;;;;;;;21.02;10.55;;;;;;;2.25;92.96;100884.00;5052318;28;20032;-77
2023/03/29 05:33:30;;;;;;;25.17;8.65;;;;;;;2.24;92.46;100884.84;5053232;28;20035;-78
2023/03/29 05:36:06;;;;;;;17.83;7.97;;;;;;;2.35;93.19;100885.19;5036514;28;20171;-77
2023/03/29 05:38:34;;;;;;;17.75;7.53;;;;;;;2.42;92.45;100884.56;5049911;28;20431;-77
2023/03/29 05:41:01;;;;;;;17.38;6.97;;;;;;;2.55;91.72;100891.06;5052938;28;20476;-77
2023/03/29 05:43:52;;;;;;;16.35;5.78;;;;;;;2.59;91.70;100886.00;5064007;28;20036;-77
2023/03/29 05:46:22;;;;;;;11.75;4.47;;;;;;;2.67;91.47;100895.78;5051957;28;20066;-77
2023/03/29 05:48:51;;;;;;;9.02;4.75;;;;;;;2.76;91.22;100902.16;5045280;28;20499;-77
2023/03/29 05:51:17;;;;;;;10.35;4.50;;;;;;;2.83;90.22;100895.44;5053541;28;20035;-77
2023/03/29 05:53:44;;;;;;;9.05;4.38;;;;;;;2.88;90.83;100891.22;5043734;28;20028;-77
2023/03/29 05:56:10;;;;;;;9.55;4.35;;;;;;;2.94;89.57;100887.94;5044636;28;20043;-77
2023/03/29 05:58:38;;;;;;;8.43;3.40;;;;;;;3.01;90.12;100887.25;5051904;28;20055;-77
2023/03/29 06:01:04;;;;;;;8.70;3.00;;;;;;;3.16;89.72;100886.84;5043857;28;20515;-77
2023/03/29 06:03:52;;;;;;;11.18;3.15;;;;;;;3.31;88.22;100886.44;5054909;28;20062;-78
2023/03/29 06:06:20;;;;;;;9.50;2.75;;;;;;;3.48;87.06;100886.06;5051869;28;20491;-77
2023/03/29 06:08:46;;;;;;;6.85;2.33;;;;;;;3.57;85.94;100875.00;5046170;28;20033;-77
2023/03/29 06:11:18;;;;;;;6.25;2.10;;;;;;;3.65;85.40;100880.44;5046341;28;20048;-77
2023/03/29 06:14:03;;;;;;;5.10;2.13;;;;;;;3.80;85.93;100883.47;5066926;28;20045;-77
2023/03/29 06:16:29;;;;;;;5.05;1.88;;;;;;;3.91;83.77;100887.22;5052031;28;20510;-77
2023/03/29 06:18:55;;;;;;;4.43;1.63;;;;;;;4.05;82.71;100878.88;5053710;28;20060;-77
2023/03/29 06:21:21;;;;;;;4.65;2.25;;;;;;;4.21;82.27;100875.78;5042065;28;20033;-78
2023/03/29 06:23:46;;;;;;;5.68;2.17;;;;;;;4.34;82.45;100880.47;5047545;28;20024;-78
2023/03/29 06:26:13;;;;;;;7.07;1.70;;;;;;;4.50;82.54;100873.88;5055138;28;20055;-77
2023/03/29 06:28:41;;;;;;;4.57;1.95;;;;;;;4.53;81.31;100874.00;5044152;28;20036;-77
2023/03/29 06:31:09;;;;;;;6.05;1.75;;;;;;;4.62;81.20;100875.94;5053691;28;20046;-77
2023/03/29 06:33:37;;;;;;;4.18;1.98;;;;;;;4.59;81.74;100878.47;5049818;28;20033;-77
2023/03/29 06:36:14;;;;;;;4.95;2.72;;;;;;;4.65;81.32;100882.97;5046419;28;20028;-78
2023/03/29 06:38:41;;;;;;;4.45;1.67;;;;;;;4.79;80.09;100877.22;5070157;28;20390;-77
2023/03/29 06:41:30;;;;;;;7.68;1.95;;;;;;;4.98;78.97;100877.63;5059255;28;20036;-77
2023/03/29 06:44:04;;;;;;;6.95;2.40;;;;;;;5.21;79.11;100876.38;5072901;28;20040;-78
2023/03/29 06:46:36;;;;;;;4.95;2.38;;;;;;;5.42;79.28;100867.19;5058175;28;20115;-78
2023/03/29 06:49:05;;;;;;;5.28;2.42;;;;;;;5.48;77.88;100870.81;5041283;28;20024;-77
2023/03/29 06:51:53;;;;;;;5.78;2.50;;;;;;;5.58;76.60;100864.03;5064398;28;20070;-77
2023/03/29 06:54:19;;;;;;;7.25;2.30;;;;;;;5.60;75.56;100866.69;5049933;28;20037;-78
2023/03/29 06:56:56;;;;;;;5.32;2.28;;;;;;;5.64;75.27;100866.78;5040440;28;20052;-78
2023/03/29 06:59:22;;;;;;;9.18;2.30;;;;;;;5.70;74.01;100871.25;5069745;28;20111;-78
2023/03/29 07:01:53;;;;;;;7.38;2.22;;;;;;;5.85;73.56;100860.19;5059297;28;20035;-77
2023/03/29 07:04:28;;;;;;;4.35;2.25;;;;;;;5.76;72.78;100860.88;5054605;28;20025;-78
2023/03/29 07:07:10;;;;;;;4.10;1.70;;;;;;;5.94;72.97;100855.13;5047656;28;20052;-78
2023/03/29 07:09:38;;;;;;;7.05;2.40;;;;;;;6.06;71.39;100857.09;5059026;28;20033;-77
2023/03/29 07:12:25;;;;;;;11.25;2.90;;;;;;;6.23;71.31;100858.25;5058934;28;20557;-78
2023/03/29 07:14:54;;;;;;;7.07;1.92;;;;;;;6.39;71.30;100853.25;5055627;28;20029;-78
2023/03/29 07:17:21;;;;;;;6.72;3.13;;;;;;;6.33;70.62;100864.53;5058077;28;20045;-78
2023/03/29 07:19:47;;;;;;;6.00;2.55;;;;;;;6.46;70.84;100865.59;5058385;28;20067;-77
2023/03/29 07:22:36;;;;;;;9.90;2.78;;;;;;;6.73;70.13;100867.75;5070434;28;20047;-77
2023/03/29 07:25:02;;;;;;;6.13;2.28;;;;;;;6.88;70.06;100865.38;5070919;28;20399;-77
2023/03/29 07:27:28;;;;;;;6.80;1.70;;;;;;;7.07;68.89;100866.50;5050504;28;20031;-78
2023/03/29 07:29:55;;;;;;;6.95;2.00;;;;;;;7.15;68.55;100869.22;5071261;28;20040;-78
2023/03/29 07:32:21;;;;;;;7.25;1.80;;;;;;;7.25;68.02;100876.38;5069948;28;20411;-78
2023/03/29 07:35:06;;;;;;;8.32;1.98;;;;;;;7.28;67.86;100870.28;5067844;28;20561;-78
2023/03/29 07:37:36;;;;;;;8.70;2.28;;;;;;;7.25;67.51;100852.72;5054714;28;20563;-78
2023/03/29 07:40:14;;;;;;;5.68;1.85;;;;;;;7.27;68.32;100861.53;5042421;28;20035;-78
2023/03/29 07:42:55;;;;;;;6.95;2.88;;;;;;;7.31;68.89;100854.56;5060391;28;20037;-77
2023/03/29 07:45:24;;;;;;;7.00;2.10;;;;;;;7.28;68.26;100854.53;5051789;28;20115;-77
2023/03/29 07:48:09;;;;;;;7.22;2.42;;;;;;;7.39;68.65;100852.94;5049801;28;20384;-78
2023/03/29 07:50:47;;;;;;;7.07;2.78;;;;;;;7.44;68.00;100857.38;5058580;28;20121;-78
2023/03/29 07:53:13;;;;;;;11.93;3.53;;;;;;;7.58;69.36;100852.25;5058195;28;20036;-78
2023/03/29 07:55:45;;;;;;;7.05;2.55;;;;;;;7.38;67.51;100857.28;5058923;28;20033;-78
2023/03/29 07:58:42;;;;;;;8.82;2.55;;;;;;;7.63;68.23;100852.31;5050325;28;20036;-77
2023/03/29 08:01:07;;;;;;;4.90;2.20;;;;;;;7.76;68.77;100853.34;5049252;28;20033;-77
2023/03/29 08:03:51;;;;;;;9.88;2.47;;;;;;;7.66;67.09;100855.84;5068270;28;20124;-77
2023/03/29 08:06:18;;;;;;;4.68;2.03;;;;;;;7.56;67.15;100855.75;5038629;28;20032;-78
2023/03/29 08:08:44;;;;;;;5.68;2.15;;;;;;;7.64;66.68;100846.19;5056231;28;20086;-77
2023/03/29 08:11:12;;;;;;;5.40;2.72;;;;;;;7.66;67.01;100853.22;5060094;28;20614;-78
2023/03/29 08:14:10;;;;;;;11.77;2.65;;;;;;;7.57;67.11;100850.50;5046438;28;20129;-78
2023/03/29 08:17:01;;;;;;;4.78;2.13;;;;;;;7.59;68.89;100848.75;5068609;28;20441;-77
2023/03/29 08:19:27;;;;;;;5.05;2.70;;;;;;;7.63;67.88;100847.06;5056290;28;20040;-78
2023/03/29 08:22:03;;;;;;;6.65;2.33;;;;;;;7.64;67.96;100844.44;5056472;28;20037;-78
2023/03/29 08:24:43;;;;;;;8.30;2.80;;;;;;;7.56;67.54;100847.84;5042642;28;20024;-77
2023/03/29 08:27:10;;;;;;;5.00;2.28;;;;;;;7.66;67.13;100844.47;5052841;28;20039;-77
2023/03/29 08:29:35;;;;;;;8.10;1.83;;;;;;;7.80;67.91;100840.22;5055351;28;20455;-78
2023/03/29 08:32:00;;;;;;;5.22;2.50;;;;;;;8.00;67.29;100848.31;5055599;28;20146;-77
2023/03/29 08:34:26;;;;;;;7.00;2.47;;;;;;;8.13;66.68;100850.19;5055893;28;20037;-78
2023/03/29 08:37:12;;;;;;;6.63;2.47;;;;;;;8.22;66.03;100854.63;5049559;28;20025;-78
2023/03/29 08:39:42;;;;;;;7.20;2.50;;;;;;;8.35;66.00;100848.59;5052426;28;20085;-78
2023/03/29 08:42:47;;;;;;;6.47;2.33;;;;;;;8.37;65.81;100846.00;5026723;28;20044;-77
2023/03/29 08:45:34;;;;;;;6.65;2.15;;;;;;;8.39;65.41;100843.41;5049541;28;20040;-78
2023/03/29 08:48:15;;;;;;;6.13;3.10;;;;;;;8.37;65.74;100837.25;5055247;28;20491;-78
2023/03/29 08:50:53;;;;;;;4.78;2.03;;;;;;;8.33;66.44;100846.84;5069325;28;20031;-78
2023/03/29 08:53:29;;;;;;;7.88;2.40;;;;;;;8.44;66.65;100845.22;5072182;22;20048;-73
2023/03/29 08:56:12;;;;;;;6.53;2.50;;;;;;;8.43;66.23;100840.81;5076205;28;20399;-73
2023/03/29 08:58:56;;;;;;;7.15;2.17;;;;;;;8.52;66.48;100835.63;5080234;28;20105;-73
2023/03/29 09:01:30;;;;;;;11.38;2.78;;;;;;;8.35;67.46;100830.19;5078173;28;20024;-73
2023/03/29 09:04:07;;;;;;;8.00;3.00;;;;;;;8.62;67.12;100838.31;5041629;28;20039;-73
2023/03/29 09:06:47;;;;;;;5.78;3.00;;;;;;;8.78;66.94;100830.53;5045134;28;20034;-73
2023/03/29 09:09:21;;;;;;;7.80;2.38;;;;;;;8.85;66.73;100836.69;5048536;28;20037;-73
2023/03/29 09:12:03;;;;;;;8.57;2.33;;;;;;;8.72;66.40;100834.88;5042348;28;20127;-73
2023/03/29 09:14:58;;;;;;;6.18;2.90;;;;;;;8.93;67.63;100831.47;5039884;28;20061;-73
2023/03/29 09:17:35;;;;;;;7.22;2.10;;;;;;;9.05;67.51;100836.81;5045815;28;20045;-73
2023/03/29 09:20:19;;;;;;;6.60;2.33;;;;;;;9.14;65.55;100822.81;5040265;28;20052;-73
2023/03/29 09:22:57;;;;;;;5.38;2.25;;;;;;;9.28;65.45;100822.88;5030378;28;20044;-73
2023/03/29 09:25:42;;;;;;;4.38;2.10;;;;;;;9.33;65.39;100823.78;5044194;28;20035;-73
2023/03/29 09:28:16;;;;;;;4.90;2.53;;;;;;;9.66;64.99;100826.50;5043799;28;20036;-73
2023/03/29 09:31:07;;;;;;;4.53;2.42;;;;;;;9.79;64.16;100831.81;5041558;28;20033;-73
2023/03/29 09:33:43;;;;;;;5.35;2.50;;;;;;;9.78;63.96;100824.78;5038650;28;20496;-74
2023/03/29 09:36:39;;;;;;;6.82;2.33;;;;;;;9.79;64.36;100821.25;5023031;28;20034;-74
2023/03/29 09:39:05;;;;;;;4.60;2.42;;;;;;;9.90;64.70;100822.13;5042687;28;20036;-73
2023/03/29 09:41:40;;;;;;;4.03;2.08;;;;;;;9.87;63.44;100824.78;5044486;28;20103;-73
2023/03/29 09:44:08;;;;;;;7.97;2.75;;;;;;;9.63;64.96;100823.84;5047938;28;20442;-73
2023/03/29 09:46:40;;;;;;;5.43;2.00;;;;;;;9.70;64.49;100814.22;5027970;28;20034;-73
2023/03/29 09:49:13;;;;;;;4.93;2.35;;;;;;;9.73;64.80;100814.22;5051781;28;20124;-73
2023/03/29 09:51:40;;;;;;;6.72;2.65;;;;;;;9.59;64.73;100808.94;5025244;28;20179;-74
2023/03/29 09:54:09;;;;;;;5.85;2.35;;;;;;;9.62;64.89;100805.44;5042209;28;20079;-73
2023/03/29 09:57:12;;;;;;;3.97;2.35;;;;;;;9.68;64.89;100805.44;5050751;28;20040;-73
2023/03/29 09:59:37;;;;;;;4.63;2.55;;;;;;;9.76;64.50;100800.16;5052987;28;20021;-73
2023/03/29 10:02:11;;;;;;;8.23;3.17;;;;;;;9.79;65.84;100797.53;5043294;28;20556;-74
2023/03/29 10:04:38;;;;;;;11.60;3.53;;;;;;;9.73;65.00;100789.63;5027630;28;20045;-74
2023/03/29 10:07:15;;;;;;;6.57;2.53;;;;;;;9.92;64.83;100783.47;5041677;28;20090;-73
2023/03/29 10:09:44;;;;;;;4.47;2.22;;;;;;;9.96;64.90;100790.53;5048864;28;20060;-73
2023/03/29 10:12:15;;;;;;;6.53;2.40;;;;;;;10.04;65.01;100786.13;5037710;28;20032;-73
2023/03/29 10:14:48;;;;;;;4.80;2.30;;;;;;;9.80;65.96;100789.63;5038960;28;20418;-73
2023/03/29 10:17:25;;;;;;;5.85;2.97;;;;;;;9.87;64.76;100780.84;5042967;28;20510;-73
2023/03/29 10:19:55;;;;;;;7.63;2.67;;;;;;;9.94;64.27;100780.84;5047219;28;20041;-73
2023/03/29 10:22:30;;;;;;;4.80;2.05;;;;;;;10.15;64.68;100775.56;5043883;28;20037;-74
2023/03/29 10:24:56;;;;;;;4.60;2.42;;;;;;;10.13;63.71;100776.47;5046400;28;20040;-74
2023/03/29 10:27:30;;;;;;;6.40;2.40;;;;;;;10.05;64.26;100771.19;5043806;28;20033;-73
2023/03/29 10:29:59;;;;;;;5.03;2.40;;;;;;;10.14;63.70;100773.84;5049607;28;20041;-74
2023/03/29 10:32:32;;;;;;;4.78;2.13;;;;;;;10.34;64.17;100776.47;5043535;28;20037;-73
2023/03/29 10:35:09;;;;;;;5.07;2.30;;;;;;;10.26;63.66;100768.53;5042547;28;20042;-74
2023/03/29 10:37:40;;;;;;;4.32;2.25;;;;;;;10.38;63.72;100770.31;5047249;28;20033;-74
2023/03/29 10:40:06;;;;;;;4.00;1.80;;;;;;;10.50;62.83;100765.00;5047167;28;20033;-74
2023/03/29 10:42:31;;;;;;;3.92;1.95;;;;;;;10.30;63.83;100765.06;5046682;28;20891;-73
2023/03/29 10:44:58;;;;;;;4.82;2.15;;;;;;;10.37;64.47;100765.91;5046346;28;20419;-73
2023/03/29 10:47:24;;;;;;;17.63;3.53;;;;;;;10.59;63.83;100760.59;5042125;28;20037;-74
2023/03/29 10:49:53;;;;;;;4.38;2.28;;;;;;;10.72;63.41;100763.19;5051147;28;20496;-73
2023/03/29 10:52:20;;;;;;;4.80;2.50;;;;;;;10.44;61.42;100751.81;5046412;28;20491;-73
2023/03/29 10:54:46;;;;;;;7.10;2.92;;;;;;;10.48;62.56;100755.34;5057580;28;20124;-73
2023/03/29 10:57:31;;;;;;;5.32;2.53;;;;;;;10.43;62.20;100754.50;5056670;28;20036;-73
2023/03/29 11:00:35;;;;;;;5.22;2.40;;;;;;;10.68;62.38;100752.66;5045928;28;20414;-74
2023/03/29 11:03:20;;;;;;;6.57;3.00;;;;;;;10.84;61.90;100746.41;5047793;28;20068;-73
2023/03/29 11:06:07;;;;;;;5.15;2.50;;;;;;;11.12;60.92;100741.03;5050385;28;20060;-73
2023/03/29 11:08:47;;;;;;;5.97;3.67;;;;;;;11.17;60.71;100731.31;5055609;28;20041;-73
2023/03/29 11:11:35;;;;;;;5.35;2.72;;;;;;;11.56;61.03;100731.97;5047179;28;20029;-73
2023/03/29 11:14:21;;;;;;;4.50;2.40;;;;;;;11.69;59.82;100730.13;5048478;28;20083;-73
2023/03/29 11:17:08;;;;;;;6.75;2.90;;;;;;;11.76;58.89;100731.81;5049315;28;20068;-73
2023/03/29 11:20:01;;;;;;;6.97;2.88;;;;;;;11.65;58.59;100729.25;5048680;28;20052;-73
2023/03/29 11:23:04;;;;;;;4.03;2.05;;;;;;;11.83;58.14;100728.22;5052407;28;20111;-73
2023/03/29 11:25:52;;;;;;;4.97;2.40;;;;;;;12.04;57.37;100722.78;5030317;28;20056;-74
2023/03/29 11:28:30;;;;;;;4.40;2.08;;;;;;;12.23;57.42;100718.19;5042232;28;20512;-74
2023/03/29 11:31:26;;;;;;;4.57;2.58;;;;;;;11.96;56.43;100715.81;5048764;28;20548;-73
2023/03/29 11:34:19;;;;;;;4.95;2.30;;;;;;;11.73;57.71;100708.03;5045202;28;20034;-73
2023/03/29 11:36:50;;;;;;;6.90;3.17;;;;;;;11.68;57.89;100705.41;5041613;28;20059;-73
2023/03/29 11:39:23;;;;;;;4.72;2.83;;;;;;;11.55;58.70;100699.38;5044517;28;20090;-74
2023/03/29 11:41:53;;;;;;;4.70;2.10;;;;;;;11.56;58.64;100700.25;5041769;28;20056;-74
2023/03/29 11:44:28;;;;;;;5.25;2.75;;;;;;;11.57;57.87;100694.06;5052845;28;20040;-74
2023/03/29 11:47:00;;;;;;;5.55;2.25;;;;;;;11.60;58.46;100694.03;5040281;28;20044;-74
2023/03/29 11:49:36;;;;;;;;;;;;;;;11.77;58.36;100700.06;5044304;28;20036;-75
2023/03/29 11:52:17;;;;;;;4.88;2.35;;;;;;;11.82;57.69;100697.41;5044840;28;19916;-74
2023/03/29 11:55:14;;;;;;;4.32;2.00;;;;;;;11.74;57.08;100689.53;5044998;28;20055;-74
2023/03/29 11:57:56;;;;;;;5.40;2.50;;;;;;;11.72;57.57;100691.31;5038901;28;20061;-74
2023/03/29 12:00:28;;;;;;;4.55;2.25;;;;;;;11.62;57.95;100700.19;5041050;28;20132;-74
2023/03/29 12:02:58;;;;;;;3.60;2.00;;;;;;;11.67;58.69;100693.09;5047530;28;20154;-74